Flight Track Log - Related Links

Times and Time Zones

All times are in EDT time to prevent confusion due to time zone crossing. See the RPA3446 flight status page for this flight to view local times or setup timezone preferences in your user account.

Time Position Orientation Groundspeed Altitude Reporting Facility
EDT Latitude Longitude Course Direction KTS MPH feet Rate Location/Type
Sat 06:47:22 PM 39.1833 -76.7000 270° West 156 180 1,200  Level Potomac TRACON
Sat 06:48:22 PM 39.1500 -76.7500 229° Southwest 214 246 2,800 2,150 Climbing Potomac TRACON
Sat 06:49:22 PM 39.1000 -76.7000 142° Southeast 262 302 5,500 2,150 Climbing Potomac TRACON
Sat 06:50:00 PM 39.1550 -76.3439 95° East  Level FlightAware Approximate
Sat 06:50:22 PM 39.0667 -76.6167 117° Southeast 287 330 7,100  Level Potomac TRACON
Sat 06:51:00 PM 39.1500 -76.2604 90° East  Level FlightAware Approximate
Sat 06:51:22 PM 39.0833 -76.5333 76° East 282 325 7,400  Level Potomac TRACON
Sat 06:52:00 PM 39.1500 -76.2542 270° West  Level FlightAware Approximate
Sat 06:52:16 PM 39.1000 -76.4500 76° East 291 335 9,100  Level Potomac TRACON
Sat 06:53:19 PM 39.1244 -76.3444 73° East 292 336 10,000 439 Climbing Washington Center
Sat 06:54:19 PM 39.1578 -76.2250 70° East 354 407 10,000  Level Washington Center
Sat 06:55:23 PM 39.2286 -76.1369 44° Northeast 344 396 10,000  Level Washington Center
Sat 06:56:24 PM 39.3003 -76.0553 41° Northeast 345 397 10,000 -197 Level Washington Center
Sat 06:57:25 PM 39.3631 -75.9808 43° Northeast 305 351 9,600 -480 Descending Washington Center
Sat 06:58:29 PM 39.4211 -75.9131 42° Northeast 285 328 9,000 -1,056 Descending Washington Center
Sat 06:59:30 PM 39.4383 -75.7922 80° East 290 334 7,400 -968 Descending Washington Center
Sat 07:00:33 PM 39.4522 -75.6942 80° East 285 328 7,000 -194 Descending Washington Center
Sat 07:01:34 PM 39.4650 -75.5978 80° East 277 319 7,000  Level Washington Center
Sat 07:02:36 PM 39.4783 -75.5008 80° East 276 318 7,000  Level Washington Center
Sat 07:03:40 PM 39.4908 -75.4025 81° East 276 318 7,000 -242 Level Washington Center
Sat 07:04:40 PM 39.5308 -75.3058 62° Northeast 278 320 6,500 -351 Descending Washington Center
Sat 07:06:31 PM 39.6333 -75.1833 43° Northeast 266 306 6,000 -169 Descending Philadelphia TRACON
Sat 07:07:37 PM 39.7000 -75.1167 38° Northeast 268 308 6,000  Level Philadelphia TRACON
Sat 07:08:37 PM 39.7500 -75.0500 46° Northeast 265 305 6,000 -600 Level Philadelphia TRACON
Sat 07:09:37 PM 39.8000 -75.0000 38° Northeast 264 304 4,800 -1,650 Descending Philadelphia TRACON
Sat 07:10:37 PM 39.8833 -74.9833 North 272 313 2,700 -1,105 Descending Philadelphia TRACON
Sat 07:11:31 PM 39.9333 -74.9833 360° North 204 235 2,700 -368 Level Philadelphia TRACON
Sat 07:12:31 PM 39.9167 -75.0333 247° West 171 197 2,000 -400 Descending Philadelphia TRACON
Sat 07:13:31 PM 39.9000 -75.1000 252° West 174 200 1,900 -450 Descending Philadelphia TRACON
Sat 07:14:31 PM 39.8833 -75.1500 247° West 137 158 1,100 -678 Descending Philadelphia TRACON
Sat 07:15:26 PM 39.8833 -75.2000 270° West 133 153 600 -545 Descending Philadelphia TRACON

Login

Don't have an account? Register now (free) for customized features, flight alerts, and more!